Grand.pioneer — HOBN — position and weather

sailwx.info

Track history (hours):
 
Tides and Currents Weather Stations Pressure Air Temp Water Temp Dewpoint Dewpoint Depression Visibility Wind Speed Wind Dir Waves Ship Positions

Grand.pioneer

Last reported at 2018-Feb-13 08:07 UTC. Time now 2018-Feb-24 04:04 UTC.
Position N 42°16' W 070°02'.
Warning: this ship's position is 10 days out of date.

Length 200 m; draft 9.1 m.

Type: Cargo ship. MMSI: 352935000.

Date/timePositionNaut miles runAvg speedWind from/ knotsBaromVisibWave heightAir tempDewpointWater temp
2018-Feb-13 08:07N 42°16' W 070°02'110.3
2018-Feb-13 07:59N 42°17' W 070°02'5 9.6
2018-Feb-13 07:30N 42°17' W 070°09'5 9.4
2018-Feb-13 07:00N 42°18' W 070°15'5 9.7
2018-Feb-13 06:30N 42°18' W 070°21'5 9.3
2018-Feb-13 06:00N 42°19' W 070°28'5 9.8
2018-Feb-13 05:31N 42°19' W 070°34'5 9.6
2018-Feb-13 05:00N 42°20' W 070°41'5 9.6
2018-Feb-13 04:31N 42°22' W 070°46'5 9.1
2018-Feb-13 04:00N 42°23' W 070°53'611.8
2018-Feb-13 03:30N 42°20' W 070°60'4 8.0
2018-Feb-13 03:00N 42°23' W 071°03'0 0.1
2018-Feb-13 02:26N 42°23' W 071°03'0 0.0
2018-Feb-13 01:56N 42°23' W 071°03'0 0.0
2018-Feb-13 01:26N 42°23' W 071°03'0 0.0
2018-Feb-13 00:56N 42°23' W 071°03'0 0.0
2018-Feb-13 00:26N 42°23' W 071°03'0 0.0
2018-Feb-12 23:56N 42°23' W 071°03'0 0.0
2018-Feb-12 23:26N 42°23' W 071°03'0 0.0
2018-Feb-12 22:56N 42°23' W 071°03'0 0.0
2018-Feb-12 22:26N 42°23' W 071°03'0 0.0
2018-Feb-12 21:56N 42°23' W 071°03'0 0.0
2018-Feb-12 21:26N 42°23' W 071°03'0 0.0
2018-Feb-12 20:59N 42°23' W 071°03'0 0.0
2018-Feb-12 20:26N 42°23' W 071°03'0 0.0
2018-Feb-12 19:56N 42°23' W 071°03'0 0.0
2018-Feb-12 19:26N 42°23' W 071°03'0 0.0
2018-Feb-12 18:59N 42°23' W 071°03'0 0.0
2018-Feb-12 18:26N 42°23' W 071°03'0 0.0
2018-Feb-12 17:56N 42°23' W 071°03'0 0.0
2018-Feb-12 17:26N 42°23' W 071°03'0 0.0
2018-Feb-12 16:56N 42°23' W 071°03'0 0.0
2018-Feb-12 16:26N 42°23' W 071°03'0 0.0
2018-Feb-12 15:56N 42°23' W 071°03'0 0.0
2018-Feb-12 15:14N 42°23' W 071°03'0 0.0
2018-Feb-12 14:56N 42°23' W 071°03'0 0.0
2018-Feb-12 14:26N 42°23' W 071°03'0 0.0
2018-Feb-12 13:56N 42°23' W 071°03'0 0.0
2018-Feb-12 13:26N 42°23' W 071°03'0 0.0
2018-Feb-12 12:56N 42°23' W 071°03'0 0.0
2018-Feb-12 12:26N 42°23' W 071°03'0 0.0
2018-Feb-12 11:56N 42°23' W 071°03'0 0.0
2018-Feb-12 11:26N 42°23' W 071°03'0 0.0
2018-Feb-12 10:56N 42°23' W 071°03'0 0.6
2018-Feb-12 10:30N 42°23' W 071°03'2 3.1
2018-Feb-12 10:00N 42°22' W 071°02'4 9.0
2018-Feb-12 09:31N 42°20' W 070°57'5 9.8
2018-Feb-12 09:00N 42°24' W 070°52'4 8.8
2018-Feb-12 08:30N 42°25' W 070°46'0 0.8
2018-Feb-12 08:01N 42°25' W 070°46'0 0.2
2018-Feb-12 07:29N 42°25' W 070°46'0 0.0
2018-Feb-12 06:59N 42°25' W 070°46'0 0.0
2018-Feb-12 06:29N 42°25' W 070°46'0 0.0
2018-Feb-12 05:59N 42°25' W 070°46'0 0.0
2018-Feb-12 05:29N 42°25' W 070°46'0 0.0
2018-Feb-12 04:59N 42°25' W 070°46'0 0.0
2018-Feb-12 04:29N 42°25' W 070°46'0 0.0
2018-Feb-12 03:59N 42°25' W 070°46'0 0.0
2018-Feb-12 03:29N 42°25' W 070°46'0 0.0
2018-Feb-12 02:59N 42°25' W 070°46'0 0.0
2018-Feb-12 02:29N 42°25' W 070°46'0 0.0
2018-Feb-12 01:59N 42°25' W 070°46'0 0.1
2018-Feb-12 01:29N 42°25' W 070°46'0 0.0
2018-Feb-12 00:59N 42°25' W 070°46'0 0.0
2018-Feb-12 00:29N 42°25' W 070°46'0 0.1
2018-Feb-11 23:59N 42°25' W 070°46'0 0.0
2018-Feb-11 23:29N 42°25' W 070°46'0 0.1
2018-Feb-11 22:59N 42°25' W 070°46'1 1.8
2018-Feb-11 22:30N 42°25' W 070°45'4 8.5
2018-Feb-11 22:00N 42°23' W 070°40'5 9.3
2018-Feb-11 21:30N 42°22' W 070°33'5 9.4
2018-Feb-11 21:00N 42°21' W 070°27'5 9.4
2018-Feb-11 20:30N 42°21' W 070°21'5 9.4
2018-Feb-11 20:00N 42°20' W 070°14'5 9.4
2018-Feb-11 19:30N 42°20' W 070°08'5 9.6
2018-Feb-11 19:00N 42°20' W 070°02'4 8.9
2018-Feb-11 18:30N 42°16' W 069°58'199 6.1
2018-Feb-10 09:59N 40°25' W 073°37'5 9.6
2018-Feb-10 09:30N 40°26' W 073°43'5 9.7
2018-Feb-10 09:00N 40°27' W 073°49'5 9.6
2018-Feb-10 08:30N 40°29' W 073°55'612.9
2018-Feb-10 08:00N 40°33' W 074°02'612.3
2018-Feb-10 07:30N 40°39' W 074°04'4 7.2
2018-Feb-10 07:00N 40°39' W 074°09'3 6.3
2018-Feb-10 06:29N 40°42' W 074°09'0 0.3
2018-Feb-10 06:00N 40°42' W 074°09'0 0.0
2018-Feb-10 05:30N 40°42' W 074°09'0 0.0
2018-Feb-10 05:00N 40°42' W 074°09'0 0.0
2018-Feb-10 04:30N 40°42' W 074°09'0 0.0
2018-Feb-10 04:01N 40°42' W 074°09'0 0.0
2018-Feb-10 03:30N 40°42' W 074°09'0 0.0
2018-Feb-10 03:00N 40°42' W 074°09'0 0.0
2018-Feb-10 02:30N 40°42' W 074°09'0 0.0
2018-Feb-10 02:00N 40°42' W 074°09'0 0.0
2018-Feb-10 01:27N 40°42' W 074°09'0 0.0
2018-Feb-10 01:00N 40°42' W 074°09'0 0.0
2018-Feb-10 00:30N 40°42' W 074°09'0 0.0
2018-Feb-10 00:00N 40°42' W 074°09'0 0.0
2018-Feb-09 23:30N 40°42' W 074°09'0 0.0
2018-Feb-09 23:00N 40°42' W 074°09'0 0.0
2018-Feb-09 22:45N 40°42' W 074°09'0 0.0
2018-Feb-09 22:30N 40°42' W 074°09'0 0.0
2018-Feb-09 21:30N 40°42' W 074°09'0 0.0
2018-Feb-09 21:00N 40°42' W 074°09'0 0.0
2018-Feb-09 20:30N 40°42' W 074°09'0 0.0
2018-Feb-09 19:30N 40°42' W 074°09'0 0.0
2018-Feb-09 19:00N 40°42' W 074°09'0 0.0
2018-Feb-09 18:30N 40°42' W 074°09'0 0.0
2018-Feb-09 17:30N 40°42' W 074°09'0 0.0
2018-Feb-09 17:00N 40°42' W 074°09'0 0.0
2018-Feb-09 16:30N 40°42' W 074°09'0 0.0
2018-Feb-09 16:00N 40°42' W 074°09'0 0.0
2018-Feb-09 12:30N 40°42' W 074°09'0 0.0
2018-Feb-09 11:30N 40°42' W 074°09'0 0.0
2018-Feb-09 11:00N 40°42' W 074°09'0 0.0
2018-Feb-09 10:00N 40°42' W 074°09'0 0.0
2018-Feb-09 08:30N 40°42' W 074°09'7 0.9
2018-Feb-09 00:30N 40°37' W 074°03'100 7.4
2018-Feb-08 11:00N 39°17' W 075°22'1615.5
2018-Feb-08 10:00N 39°29' W 075°34'33 8.4
2018-Feb-08 06:00N 39°17' W 076°14'612.1
2018-Feb-08 05:30N 39°11' W 076°17'14 9.5
2018-Feb-08 04:00N 39°15' W 076°34'1 2.1
2018-Feb-08 03:30N 39°16' W 076°36'0 0.0
2018-Feb-08 01:29N 39°16' W 076°36'0 0.0
2018-Feb-08 00:59N 39°16' W 076°36'0 0.0
2018-Feb-08 00:29N 39°16' W 076°36'0 0.0
2018-Feb-07 23:59N 39°16' W 076°36'0 0.0
2018-Feb-07 23:29N 39°16' W 076°36'0 0.0
2018-Feb-07 22:59N 39°16' W 076°36'0 0.0
2018-Feb-07 22:29N 39°16' W 076°36'0 0.0
2018-Feb-07 21:59N 39°16' W 076°36'0 0.0
2018-Feb-07 21:29N 39°16' W 076°36'47 3.9
2018-Feb-07 09:30N 39°33' W 075°39'510.0
2018-Feb-07 09:00N 39°34' W 075°33'5 9.0
2018-Feb-07 08:31N 39°38' W 075°34'1110.8
2018-Feb-07 07:30N 39°48' W 075°27'9 9.2
2018-Feb-07 06:31N 39°51' W 075°16'510.1
2018-Feb-07 06:00N 39°53' W 075°09'1 2.3
2018-Feb-07 05:29N 39°54' W 075°08'0 0.0
2018-Feb-07 04:59N 39°54' W 075°08'0 0.0
2018-Feb-07 04:29N 39°54' W 075°08'0 0.0
2018-Feb-07 03:59N 39°54' W 075°08'0 0.0
2018-Feb-07 03:29N 39°54' W 075°08'0 0.0
2018-Feb-07 02:59N 39°54' W 075°08'0 0.0
2018-Feb-07 02:29N 39°54' W 075°08'0 0.0
2018-Feb-07 01:59N 39°54' W 075°08'0 0.0
2018-Feb-07 01:29N 39°54' W 075°08'0 0.0
2018-Feb-07 00:56N 39°54' W 075°08'0 0.0
2018-Feb-07 00:29N 39°54' W 075°08'0 0.0
2018-Feb-06 23:59N 39°54' W 075°08'0 0.0
2018-Feb-06 23:26N 39°54' W 075°08'0 0.0
2018-Feb-06 22:59N 39°54' W 075°08'0 0.0
2018-Feb-06 22:26N 39°54' W 075°08'0 0.0
2018-Feb-06 21:59N 39°54' W 075°08'0 0.0
2018-Feb-06 21:29N 39°54' W 075°08'0 0.0
2018-Feb-06 20:59N 39°54' W 075°08'0 0.0
2018-Feb-06 20:29N 39°54' W 075°08'0 0.0
2018-Feb-06 19:59N 39°54' W 075°08'0 0.0
2018-Feb-06 19:29N 39°54' W 075°08'0 0.0
2018-Feb-06 18:59N 39°54' W 075°08'0 0.0
2018-Feb-06 18:29N 39°54' W 075°08'0 0.0
2018-Feb-06 17:59N 39°54' W 075°08'0 0.0
2018-Feb-06 17:29N 39°54' W 075°08'0 0.0
2018-Feb-06 16:59N 39°54' W 075°08'0 0.0
2018-Feb-06 16:29N 39°54' W 075°08'0 0.0
2018-Feb-06 15:59N 39°54' W 075°08'0 0.0
2018-Feb-06 15:29N 39°54' W 075°08'0 0.0
2018-Feb-06 14:59N 39°54' W 075°08'0 0.0
2018-Feb-06 14:29N 39°54' W 075°08'0 0.0
2018-Feb-06 13:59N 39°54' W 075°08'0 0.0
2018-Feb-06 13:29N 39°54' W 075°08'0 0.0
2018-Feb-06 12:59N 39°54' W 075°08'0 0.0
2018-Feb-06 12:29N 39°54' W 075°08'0 0.0
2018-Feb-06 11:59N 39°54' W 075°08'0 0.0
2018-Feb-06 11:29N 39°54' W 075°08'0 0.0
2018-Feb-06 10:59N 39°54' W 075°08'0 0.0
2018-Feb-06 10:29N 39°54' W 075°08'0 0.0
2018-Feb-06 09:59N 39°54' W 075°08'0 0.0
2018-Feb-06 09:29N 39°54' W 075°08'0 0.0
2018-Feb-06 08:59N 39°54' W 075°08'0 0.0
2018-Feb-06 08:29N 39°54' W 075°08'0 0.0
2018-Feb-06 07:59N 39°54' W 075°08'0 0.0
2018-Feb-06 07:29N 39°54' W 075°08'0 0.0
2018-Feb-06 06:59N 39°54' W 075°08'0 0.0
2018-Feb-06 06:29N 39°54' W 075°08'0 0.0
2018-Feb-06 05:59N 39°54' W 075°08'0 0.0
2018-Feb-06 05:29N 39°54' W 075°08'0 0.0
2018-Feb-06 04:59N 39°54' W 075°08'0 0.0
2018-Feb-06 04:29N 39°54' W 075°08'0 0.0
2018-Feb-06 03:59N 39°54' W 075°08'0 0.0
2018-Feb-06 03:29N 39°54' W 075°08'0 0.0
2018-Feb-06 02:59N 39°54' W 075°08'0 0.0
2018-Feb-06 02:29N 39°54' W 075°08'0 0.0
2018-Feb-06 01:59N 39°54' W 075°08'0 0.0
2018-Feb-06 01:29N 39°54' W 075°08'0 0.0
2018-Feb-06 00:59N 39°54' W 075°08'0 0.0
2018-Feb-06 00:29N 39°54' W 075°08'0 0.0
2018-Feb-05 23:56N 39°54' W 075°08'0 0.0
2018-Feb-05 23:29N 39°54' W 075°08'0 0.0
2018-Feb-05 22:59N 39°54' W 075°08'7 4.8
2018-Feb-05 21:30N 39°51' W 075°17'10 9.9
2018-Feb-05 20:30N 39°46' W 075°28'5313.1
2018-Feb-05 16:28N 38°56' W 075°06'  
Track history (hours):
 
Tides and Currents Weather Stations Pressure Air Temp Water Temp Dewpoint Dewpoint Depression Visibility Wind Speed Wind Dir Waves Ship Positions

Grand.pioneer

Last reported at 2018-Feb-13 08:07 UTC. Time now 2018-Feb-24 04:04 UTC.
Position N 42°16' W 070°02'.
Warning: this ship's position is 10 days out of date.

Length 200 m; draft 9.1 m.

Type: Cargo ship. MMSI: 352935000.

Date/timePositionNaut miles runAvg speedWind from/ knotsBaromVisibWave heightAir tempDewpointWater temp
2018-Feb-13 08:07N 42°16' W 070°02'110.3
2018-Feb-13 07:59N 42°17' W 070°02'5 9.6
2018-Feb-13 07:30N 42°17' W 070°09'5 9.4
2018-Feb-13 07:00N 42°18' W 070°15'5 9.7
2018-Feb-13 06:30N 42°18' W 070°21'5 9.3
2018-Feb-13 06:00N 42°19' W 070°28'5 9.8
2018-Feb-13 05:31N 42°19' W 070°34'5 9.6
2018-Feb-13 05:00N 42°20' W 070°41'5 9.6
2018-Feb-13 04:31N 42°22' W 070°46'5 9.1
2018-Feb-13 04:00N 42°23' W 070°53'611.8
2018-Feb-13 03:30N 42°20' W 070°60'4 8.0
2018-Feb-13 03:00N 42°23' W 071°03'0 0.1
2018-Feb-13 02:26N 42°23' W 071°03'0 0.0
2018-Feb-13 01:56N 42°23' W 071°03'0 0.0
2018-Feb-13 01:26N 42°23' W 071°03'0 0.0
2018-Feb-13 00:56N 42°23' W 071°03'0 0.0
2018-Feb-13 00:26N 42°23' W 071°03'0 0.0
2018-Feb-12 23:56N 42°23' W 071°03'0 0.0
2018-Feb-12 23:26N 42°23' W 071°03'0 0.0
2018-Feb-12 22:56N 42°23' W 071°03'0 0.0
2018-Feb-12 22:26N 42°23' W 071°03'0 0.0
2018-Feb-12 21:56N 42°23' W 071°03'0 0.0
2018-Feb-12 21:26N 42°23' W 071°03'0 0.0
2018-Feb-12 20:59N 42°23' W 071°03'0 0.0
2018-Feb-12 20:26N 42°23' W 071°03'0 0.0
2018-Feb-12 19:56N 42°23' W 071°03'0 0.0
2018-Feb-12 19:26N 42°23' W 071°03'0 0.0
2018-Feb-12 18:59N 42°23' W 071°03'0 0.0
2018-Feb-12 18:26N 42°23' W 071°03'0 0.0
2018-Feb-12 17:56N 42°23' W 071°03'0 0.0
2018-Feb-12 17:26N 42°23' W 071°03'0 0.0
2018-Feb-12 16:56N 42°23' W 071°03'0 0.0
2018-Feb-12 16:26N 42°23' W 071°03'0 0.0
2018-Feb-12 15:56N 42°23' W 071°03'0 0.0
2018-Feb-12 15:14N 42°23' W 071°03'0 0.0
2018-Feb-12 14:56N 42°23' W 071°03'0 0.0
2018-Feb-12 14:26N 42°23' W 071°03'0 0.0
2018-Feb-12 13:56N 42°23' W 071°03'0 0.0
2018-Feb-12 13:26N 42°23' W 071°03'0 0.0
2018-Feb-12 12:56N 42°23' W 071°03'0 0.0
2018-Feb-12 12:26N 42°23' W 071°03'0 0.0
2018-Feb-12 11:56N 42°23' W 071°03'0 0.0
2018-Feb-12 11:26N 42°23' W 071°03'0 0.0
2018-Feb-12 10:56N 42°23' W 071°03'0 0.6
2018-Feb-12 10:30N 42°23' W 071°03'2 3.1
2018-Feb-12 10:00N 42°22' W 071°02'4 9.0
2018-Feb-12 09:31N 42°20' W 070°57'5 9.8
2018-Feb-12 09:00N 42°24' W 070°52'4 8.8
2018-Feb-12 08:30N 42°25' W 070°46'0 0.8
2018-Feb-12 08:01N 42°25' W 070°46'0 0.2
2018-Feb-12 07:29N 42°25' W 070°46'0 0.0
2018-Feb-12 06:59N 42°25' W 070°46'0 0.0
2018-Feb-12 06:29N 42°25' W 070°46'0 0.0
2018-Feb-12 05:59N 42°25' W 070°46'0 0.0
2018-Feb-12 05:29N 42°25' W 070°46'0 0.0
2018-Feb-12 04:59N 42°25' W 070°46'0 0.0
2018-Feb-12 04:29N 42°25' W 070°46'0 0.0
2018-Feb-12 03:59N 42°25' W 070°46'0 0.0
2018-Feb-12 03:29N 42°25' W 070°46'0 0.0
2018-Feb-12 02:59N 42°25' W 070°46'0 0.0
2018-Feb-12 02:29N 42°25' W 070°46'0 0.0
2018-Feb-12 01:59N 42°25' W 070°46'0 0.1
2018-Feb-12 01:29N 42°25' W 070°46'0 0.0
2018-Feb-12 00:59N 42°25' W 070°46'0 0.0
2018-Feb-12 00:29N 42°25' W 070°46'0 0.1
2018-Feb-11 23:59N 42°25' W 070°46'0 0.0
2018-Feb-11 23:29N 42°25' W 070°46'0 0.1
2018-Feb-11 22:59N 42°25' W 070°46'1 1.8
2018-Feb-11 22:30N 42°25' W 070°45'4 8.5
2018-Feb-11 22:00N 42°23' W 070°40'5 9.3
2018-Feb-11 21:30N 42°22' W 070°33'5 9.4
2018-Feb-11 21:00N 42°21' W 070°27'5 9.4
2018-Feb-11 20:30N 42°21' W 070°21'5 9.4
2018-Feb-11 20:00N 42°20' W 070°14'5 9.4
2018-Feb-11 19:30N 42°20' W 070°08'5 9.6
2018-Feb-11 19:00N 42°20' W 070°02'4 8.9
2018-Feb-11 18:30N 42°16' W 069°58'199 6.1
2018-Feb-10 09:59N 40°25' W 073°37'5 9.6
2018-Feb-10 09:30N 40°26' W 073°43'5 9.7
2018-Feb-10 09:00N 40°27' W 073°49'5 9.6
2018-Feb-10 08:30N 40°29' W 073°55'612.9
2018-Feb-10 08:00N 40°33' W 074°02'612.3
2018-Feb-10 07:30N 40°39' W 074°04'4 7.2
2018-Feb-10 07:00N 40°39' W 074°09'3 6.3
2018-Feb-10 06:29N 40°42' W 074°09'0 0.3
2018-Feb-10 06:00N 40°42' W 074°09'0 0.0
2018-Feb-10 05:30N 40°42' W 074°09'0 0.0
2018-Feb-10 05:00N 40°42' W 074°09'0 0.0
2018-Feb-10 04:30N 40°42' W 074°09'0 0.0
2018-Feb-10 04:01N 40°42' W 074°09'0 0.0
2018-Feb-10 03:30N 40°42' W 074°09'0 0.0
2018-Feb-10 03:00N 40°42' W 074°09'0 0.0
2018-Feb-10 02:30N 40°42' W 074°09'0 0.0
2018-Feb-10 02:00N 40°42' W 074°09'0 0.0
2018-Feb-10 01:27N 40°42' W 074°09'0 0.0
2018-Feb-10 01:00N 40°42' W 074°09'0 0.0
2018-Feb-10 00:30N 40°42' W 074°09'0 0.0
2018-Feb-10 00:00N 40°42' W 074°09'0 0.0
2018-Feb-09 23:30N 40°42' W 074°09'0 0.0
2018-Feb-09 23:00N 40°42' W 074°09'0 0.0
2018-Feb-09 22:45N 40°42' W 074°09'0 0.0
2018-Feb-09 22:30N 40°42' W 074°09'0 0.0
2018-Feb-09 21:30N 40°42' W 074°09'0 0.0
2018-Feb-09 21:00N 40°42' W 074°09'0 0.0
2018-Feb-09 20:30N 40°42' W 074°09'0 0.0
2018-Feb-09 19:30N 40°42' W 074°09'0 0.0
2018-Feb-09 19:00N 40°42' W 074°09'0 0.0
2018-Feb-09 18:30N 40°42' W 074°09'0 0.0
2018-Feb-09 17:30N 40°42' W 074°09'0 0.0
2018-Feb-09 17:00N 40°42' W 074°09'0 0.0
2018-Feb-09 16:30N 40°42' W 074°09'0 0.0
2018-Feb-09 16:00N 40°42' W 074°09'0 0.0
2018-Feb-09 12:30N 40°42' W 074°09'0 0.0
2018-Feb-09 11:30N 40°42' W 074°09'0 0.0
2018-Feb-09 11:00N 40°42' W 074°09'0 0.0
2018-Feb-09 10:00N 40°42' W 074°09'0 0.0
2018-Feb-09 08:30N 40°42' W 074°09'7 0.9
2018-Feb-09 00:30N 40°37' W 074°03'100 7.4
2018-Feb-08 11:00N 39°17' W 075°22'1615.5
2018-Feb-08 10:00N 39°29' W 075°34'33 8.4
2018-Feb-08 06:00N 39°17' W 076°14'612.1
2018-Feb-08 05:30N 39°11' W 076°17'14 9.5
2018-Feb-08 04:00N 39°15' W 076°34'1 2.1
2018-Feb-08 03:30N 39°16' W 076°36'0 0.0
2018-Feb-08 01:29N 39°16' W 076°36'0 0.0
2018-Feb-08 00:59N 39°16' W 076°36'0 0.0
2018-Feb-08 00:29N 39°16' W 076°36'0 0.0
2018-Feb-07 23:59N 39°16' W 076°36'0 0.0
2018-Feb-07 23:29N 39°16' W 076°36'0 0.0
2018-Feb-07 22:59N 39°16' W 076°36'0 0.0
2018-Feb-07 22:29N 39°16' W 076°36'0 0.0
2018-Feb-07 21:59N 39°16' W 076°36'0 0.0
2018-Feb-07 21:29N 39°16' W 076°36'47 3.9
2018-Feb-07 09:30N 39°33' W 075°39'510.0
2018-Feb-07 09:00N 39°34' W 075°33'5 9.0
2018-Feb-07 08:31N 39°38' W 075°34'1110.8
2018-Feb-07 07:30N 39°48' W 075°27'9 9.2
2018-Feb-07 06:31N 39°51' W 075°16'510.1
2018-Feb-07 06:00N 39°53' W 075°09'1 2.3
2018-Feb-07 05:29N 39°54' W 075°08'0 0.0
2018-Feb-07 04:59N 39°54' W 075°08'0 0.0
2018-Feb-07 04:29N 39°54' W 075°08'0 0.0
2018-Feb-07 03:59N 39°54' W 075°08'0 0.0
2018-Feb-07 03:29N 39°54' W 075°08'0 0.0
2018-Feb-07 02:59N 39°54' W 075°08'0 0.0
2018-Feb-07 02:29N 39°54' W 075°08'0 0.0
2018-Feb-07 01:59N 39°54' W 075°08'0 0.0
2018-Feb-07 01:29N 39°54' W 075°08'0 0.0
2018-Feb-07 00:56N 39°54' W 075°08'0 0.0
2018-Feb-07 00:29N 39°54' W 075°08'0 0.0
2018-Feb-06 23:59N 39°54' W 075°08'0 0.0
2018-Feb-06 23:26N 39°54' W 075°08'0 0.0
2018-Feb-06 22:59N 39°54' W 075°08'0 0.0
2018-Feb-06 22:26N 39°54' W 075°08'0 0.0
2018-Feb-06 21:59N 39°54' W 075°08'0 0.0
2018-Feb-06 21:29N 39°54' W 075°08'0 0.0
2018-Feb-06 20:59N 39°54' W 075°08'0 0.0
2018-Feb-06 20:29N 39°54' W 075°08'0 0.0
2018-Feb-06 19:59N 39°54' W 075°08'0 0.0
2018-Feb-06 19:29N 39°54' W 075°08'0 0.0
2018-Feb-06 18:59N 39°54' W 075°08'0 0.0
2018-Feb-06 18:29N 39°54' W 075°08'0 0.0
2018-Feb-06 17:59N 39°54' W 075°08'0 0.0
2018-Feb-06 17:29N 39°54' W 075°08'0 0.0
2018-Feb-06 16:59N 39°54' W 075°08'0 0.0
2018-Feb-06 16:29N 39°54' W 075°08'0 0.0
2018-Feb-06 15:59N 39°54' W 075°08'0 0.0
2018-Feb-06 15:29N 39°54' W 075°08'0 0.0
2018-Feb-06 14:59N 39°54' W 075°08'0 0.0
2018-Feb-06 14:29N 39°54' W 075°08'0 0.0
2018-Feb-06 13:59N 39°54' W 075°08'0 0.0
2018-Feb-06 13:29N 39°54' W 075°08'0 0.0
2018-Feb-06 12:59N 39°54' W 075°08'0 0.0
2018-Feb-06 12:29N 39°54' W 075°08'0 0.0
2018-Feb-06 11:59N 39°54' W 075°08'0 0.0
2018-Feb-06 11:29N 39°54' W 075°08'0 0.0
2018-Feb-06 10:59N 39°54' W 075°08'0 0.0
2018-Feb-06 10:29N 39°54' W 075°08'0 0.0
2018-Feb-06 09:59N 39°54' W 075°08'0 0.0
2018-Feb-06 09:29N 39°54' W 075°08'0 0.0
2018-Feb-06 08:59N 39°54' W 075°08'0 0.0
2018-Feb-06 08:29N 39°54' W 075°08'0 0.0
2018-Feb-06 07:59N 39°54' W 075°08'0 0.0
2018-Feb-06 07:29N 39°54' W 075°08'0 0.0
2018-Feb-06 06:59N 39°54' W 075°08'0 0.0
2018-Feb-06 06:29N 39°54' W 075°08'0 0.0
2018-Feb-06 05:59N 39°54' W 075°08'0 0.0
2018-Feb-06 05:29N 39°54' W 075°08'0 0.0
2018-Feb-06 04:59N 39°54' W 075°08'0 0.0
2018-Feb-06 04:29N 39°54' W 075°08'0 0.0
2018-Feb-06 03:59N 39°54' W 075°08'0 0.0
2018-Feb-06 03:29N 39°54' W 075°08'0 0.0
2018-Feb-06 02:59N 39°54' W 075°08'0 0.0
2018-Feb-06 02:29N 39°54' W 075°08'0 0.0
2018-Feb-06 01:59N 39°54' W 075°08'0 0.0
2018-Feb-06 01:29N 39°54' W 075°08'0 0.0
2018-Feb-06 00:59N 39°54' W 075°08'0 0.0
2018-Feb-06 00:29N 39°54' W 075°08'0 0.0
2018-Feb-05 23:56N 39°54' W 075°08'0 0.0
2018-Feb-05 23:29N 39°54' W 075°08'0 0.0
2018-Feb-05 22:59N 39°54' W 075°08'7 4.8
2018-Feb-05 21:30N 39°51' W 075°17'10 9.9
2018-Feb-05 20:30N 39°46' W 075°28'5313.1
2018-Feb-05 16:28N 38°56' W 075°06'  

Dump ship's entire track history